Terminal Aerodrome Forecast
Issued by NWS Topeka, KS

Home | Current Version | Previous Version | Graphics & Text | Print | Product List | Glossary On
Versions: 1 2 3 4 5 6 7 8 9 10 11 12 13 14 15 16 17 18 19 20 21 22 23 24
000
FTUS43 KTOP 191700
TAFTOP
TAF
KTOP 191728Z 1918/2018 15008KT P6SM OVC010
     FM191900 18010KT P6SM FEW025
     FM201100 22005KT 5SM BR SCT005
     FM201500 23007KT P6SM FEW040=

USA.gov is the U.S. government's official web portal to all federal, state and local government web resources and services.